Time;durP1;ratioP1;P1;durP2;ratioP2;P2;SDS_P1;SDS_P2;PMS_P1;PMS_P2;Temp;Humidity;BMP_temperature;BMP_pressure;BME280_temperature;BME280_humidity;BME280_pressure;Samples;Min_cycle;Max_cycle;Signal;HPM_P1;HPM_P2
2023/12/20 00:00:38;;;;;;;1.53;1.20;;;;;;;5.60;100.00;98192.31;5063656;28;20232;-79
2023/12/20 00:03:05;;;;;;;2.07;1.13;;;;;;;5.54;100.00;98183.88;5062781;28;20242;-79
2023/12/20 00:05:32;;;;;;;1.50;1.40;;;;;;;5.48;100.00;98198.16;5063222;28;20208;-79
2023/12/20 00:07:58;;;;;;;1.53;1.30;;;;;;;5.43;100.00;98189.66;5063783;28;20293;-79
2023/12/20 00:10:25;;;;;;;3.10;1.60;;;;;;;5.36;100.00;98184.75;5063115;28;20207;-79
2023/12/20 00:12:51;;;;;;;2.50;1.30;;;;;;;5.33;100.00;98185.78;5063279;28;20230;-79
2023/12/20 00:15:19;;;;;;;1.33;1.20;;;;;;;5.34;100.00;98177.00;5062915;28;20219;-79
2023/12/20 00:17:46;;;;;;;1.97;1.40;;;;;;;5.31;100.00;98177.13;5062611;28;20215;-79
2023/12/20 00:20:13;;;;;;;1.30;1.20;;;;;;;5.30;100.00;98170.19;5062467;28;20242;-79
2023/12/20 00:22:39;;;;;;;1.40;1.13;;;;;;;5.30;100.00;98180.69;5062352;28;20601;-79
2023/12/20 00:25:06;;;;;;;1.33;1.20;;;;;;;5.33;100.00;98171.81;5061356;28;20210;-80
2023/12/20 00:27:33;;;;;;;1.43;1.33;;;;;;;5.32;100.00;98175.38;5062148;28;20215;-80
2023/12/20 00:29:59;;;;;;;2.30;1.57;;;;;;;5.32;100.00;98163.09;5061704;28;20210;-79
2023/12/20 00:32:28;;;;;;;1.43;1.33;;;;;;;5.32;100.00;98173.59;5062426;28;20236;-80
2023/12/20 00:34:54;;;;;;;2.33;1.23;;;;;;;5.33;100.00;98172.69;5061717;28;20318;-80
2023/12/20 00:37:20;;;;;;;1.70;1.20;;;;;;;5.32;100.00;98163.09;5061298;28;20220;-80
2023/12/20 00:39:47;;;;;;;2.17;1.40;;;;;;;5.29;100.00;98163.25;5061796;28;20234;-79
2023/12/20 00:42:13;;;;;;;2.03;1.60;;;;;;;5.29;100.00;98162.41;5061070;28;20278;-79
2023/12/20 00:44:40;;;;;;;1.77;1.37;;;;;;;5.24;100.00;98149.53;5061165;28;20235;-80
2023/12/20 00:47:06;;;;;;;1.33;1.23;;;;;;;5.25;100.00;98150.38;5061638;28;20222;-81
2023/12/20 00:49:34;;;;;;;1.47;1.37;;;;;;;5.24;100.00;98164.38;5061397;28;20208;-79
2023/12/20 00:52:01;;;;;;;3.07;1.80;;;;;;;5.22;100.00;98167.09;5061575;28;20234;-82
2023/12/20 00:54:28;;;;;;;3.13;1.67;;;;;;;5.24;100.00;98167.00;5062048;28;20219;-80
2023/12/20 00:56:54;;;;;;;2.03;1.83;;;;;;;5.24;100.00;98170.50;5060910;28;20217;-80
2023/12/20 00:59:21;;;;;;;2.00;1.57;;;;;;;5.21;100.00;98170.66;5062571;28;20234;-80
2023/12/20 01:01:47;;;;;;;2.70;1.50;;;;;;;5.19;100.00;98166.41;5061830;28;20353;-80
2023/12/20 01:04:14;;;;;;;2.77;1.53;;;;;;;5.20;100.00;98168.94;5062311;28;20235;-80
2023/12/20 01:06:42;;;;;;;2.50;1.80;;;;;;;5.17;100.00;98174.31;5061477;28;20219;-80
2023/12/20 01:09:08;;;;;;;1.90;1.60;;;;;;;5.15;100.00;98165.69;5062669;28;20215;-80
2023/12/20 01:11:35;;;;;;;2.77;1.87;;;;;;;5.17;100.00;98168.22;5062802;28;20245;-80
2023/12/20 01:14:01;;;;;;;1.87;1.70;;;;;;;5.18;100.00;98178.63;5062702;28;20216;-80
2023/12/20 01:16:28;;;;;;;3.27;2.00;;;;;;;5.20;100.00;98174.16;5062154;28;20222;-80
2023/12/20 01:18:54;;;;;;;2.77;2.00;;;;;;;5.18;100.00;98165.53;5062664;28;20206;-80
2023/12/20 01:21:20;;;;;;;2.50;1.90;;;;;;;5.15;100.00;98180.56;5063304;28;20742;-80
2023/12/20 01:23:48;;;;;;;2.43;2.07;;;;;;;5.10;100.00;98165.06;5062997;28;20212;-80
2023/12/20 01:26:15;;;;;;;3.70;2.27;;;;;;;5.07;100.00;98172.22;5063158;28;20212;-80
2023/12/20 01:28:42;;;;;;;2.37;1.90;;;;;;;5.06;100.00;98168.72;5063979;28;20202;-80
2023/12/20 01:31:09;;;;;;;2.03;1.87;;;;;;;5.03;100.00;98174.13;5063441;28;20233;-80
2023/12/20 01:33:36;;;;;;;4.50;1.97;;;;;;;5.07;100.00;98180.06;5062631;28;20563;-79
2023/12/20 01:36:02;;;;;;;4.43;2.33;;;;;;;5.05;100.00;98184.50;5063480;28;20214;-80
2023/12/20 01:38:29;;;;;;;3.03;2.10;;;;;;;5.04;100.00;98175.81;5063757;28;20209;-80
2023/12/20 01:40:56;;;;;;;2.87;2.27;;;;;;;5.02;100.00;98188.13;5064259;28;20230;-80
2023/12/20 01:43:23;;;;;;;4.70;2.50;;;;;;;5.00;100.00;98179.50;5064116;28;20210;-80
2023/12/20 01:45:50;;;;;;;2.53;2.10;;;;;;;4.98;100.00;98178.72;5062979;28;20210;-80
2023/12/20 01:48:17;;;;;;;3.43;2.40;;;;;;;4.98;100.00;98183.09;5060455;28;20210;-80
2023/12/20 01:50:46;;;;;;;3.27;2.33;;;;;;;5.00;100.00;98186.53;5062100;28;20225;-80
2023/12/20 01:53:13;;;;;;;3.37;1.80;;;;;;;4.98;100.00;98176.09;5062272;28;20217;-80
2023/12/20 01:55:41;;;;;;;3.13;2.63;;;;;;;4.97;100.00;98174.41;5063044;28;20233;-80
2023/12/20 01:58:10;;;;;;;2.97;2.00;;;;;;;4.97;100.00;98168.31;5063788;28;20213;-80
2023/12/20 02:00:37;;;;;;;2.20;2.00;;;;;;;4.96;100.00;98180.53;5062355;28;20622;-80
2023/12/20 02:03:04;;;;;;;2.53;2.10;;;;;;;4.98;100.00;98167.38;5063333;28;20234;-80
2023/12/20 02:05:31;;;;;;;3.97;2.50;;;;;;;4.97;100.00;98165.69;5065046;28;20218;-80
2023/12/20 02:07:58;;;;;;;2.60;2.13;;;;;;;5.01;100.00;98167.25;5067267;28;20600;-80
2023/12/20 02:10:25;;;;;;;3.27;2.30;;;;;;;4.98;100.00;98165.63;5067515;28;20213;-80
2023/12/20 02:12:51;;;;;;;2.73;2.27;;;;;;;4.98;100.00;98163.00;5067607;28;20269;-80
2023/12/20 02:15:19;;;;;;;3.73;2.07;;;;;;;4.99;100.00;98169.09;5067644;28;20287;-80
2023/12/20 02:17:48;;;;;;;2.27;2.07;;;;;;;4.99;100.00;98169.94;5067926;28;20213;-80
2023/12/20 02:20:14;;;;;;;3.97;2.57;;;;;;;4.98;100.00;98170.88;5068119;28;20253;-80
2023/12/20 02:22:42;;;;;;;5.47;2.20;;;;;;;4.97;100.00;98173.56;5067216;28;20695;-80
2023/12/20 02:25:09;;;;;;;3.30;2.60;;;;;;;4.94;100.00;98171.91;5067493;28;20213;-80
2023/12/20 02:27:36;;;;;;;4.67;2.50;;;;;;;4.97;100.00;98177.03;5067898;28;20221;-80
2023/12/20 02:30:03;;;;;;;2.90;2.27;;;;;;;4.94;100.00;98166.69;5067323;28;20209;-80
2023/12/20 02:32:30;;;;;;;3.43;2.70;;;;;;;4.95;100.00;98173.63;5068383;28;20260;-80
2023/12/20 02:34:56;;;;;;;3.40;2.33;;;;;;;4.95;100.00;98167.53;5067877;28;20297;-81
2023/12/20 02:37:22;;;;;;;3.57;2.83;;;;;;;4.94;100.00;98165.84;5068876;28;20276;-81
2023/12/20 02:39:50;;;;;;;3.67;3.00;;;;;;;4.92;100.00;98179.00;5068227;28;20229;-80
2023/12/20 02:42:17;;;;;;;4.03;3.07;;;;;;;4.90;100.00;98167.72;5067941;28;20234;-80
2023/12/20 02:44:43;;;;;;;4.37;3.20;;;;;;;4.92;100.00;98163.28;5067193;28;20221;-82
2023/12/20 02:47:10;;;;;;;4.63;3.17;;;;;;;4.92;100.00;98172.91;5067786;28;20242;-82
2023/12/20 02:49:36;;;;;;;3.67;2.77;;;;;;;4.94;100.00;98171.91;5068510;28;20206;-80
2023/12/20 02:52:03;;;;;;;2.17;1.80;;;;;;;4.98;100.00;98168.25;5068851;28;20249;-81
2023/12/20 02:54:29;;;;;;;1.70;1.17;;;;;;;5.02;100.00;98167.16;5068890;28;20209;-80
2023/12/20 02:56:57;;;;;;;1.17;1.00;;;;;;;5.13;100.00;98157.03;5067395;28;20206;-80
2023/12/20 02:59:24;;;;;;;0.60;0.60;;;;;;;5.18;100.00;98154.19;5066122;28;20223;-80
2023/12/20 03:01:50;;;;;;;0.93;0.70;;;;;;;5.18;100.00;98168.16;5066238;28;20240;-80
2023/12/20 03:04:16;;;;;;;0.73;0.53;;;;;;;5.16;100.00;98166.53;5066999;28;20210;-80
2023/12/20 03:06:43;;;;;;;0.50;0.50;;;;;;;5.18;100.00;98165.53;5065895;28;20216;-80
2023/12/20 03:09:09;;;;;;;0.63;0.50;;;;;;;5.17;100.00;98169.09;5066020;28;20206;-80
2023/12/20 03:11:36;;;;;;;0.50;0.50;;;;;;;5.15;100.00;98165.69;5065359;28;20229;-80
2023/12/20 03:14:04;;;;;;;0.60;0.57;;;;;;;5.16;100.00;98166.53;5065734;28;20205;-80
2023/12/20 03:16:31;;;;;;;0.60;0.60;;;;;;;5.11;100.00;98179.00;5064221;28;20320;-79
2023/12/20 03:18:57;;;;;;;0.57;0.57;;;;;;;5.09;100.00;98181.69;5065769;28;20336;-81
2023/12/20 03:21:24;;;;;;;0.40;0.40;;;;;;;5.07;100.00;98178.28;5065431;28;20237;-80
2023/12/20 03:23:50;;;;;;;0.73;0.67;;;;;;;5.07;100.00;98178.28;5064926;28;20232;-80
2023/12/20 03:26:17;;;;;;;0.40;0.40;;;;;;;5.07;100.00;98183.53;5065146;28;20205;-80
2023/12/20 03:28:43;;;;;;;0.63;0.60;;;;;;;5.04;100.00;98181.06;5064954;28;20229;-80
2023/12/20 03:31:11;;;;;;;0.40;0.40;;;;;;;5.02;100.00;98185.50;5064451;28;20224;-80
2023/12/20 03:33:38;;;;;;;0.83;0.50;;;;;;;4.99;100.00;98177.81;5063869;28;20216;-80
2023/12/20 03:36:05;;;;;;;0.70;0.50;;;;;;;5.03;100.00;98184.59;5062907;28;20209;-80
2023/12/20 03:38:31;;;;;;;0.97;0.43;;;;;;;5.00;100.00;98189.13;5065148;28;20219;-80
2023/12/20 03:40:57;;;;;;;0.40;0.40;;;;;;;4.96;100.00;98185.78;5065143;28;20232;-80
2023/12/20 03:43:24;;;;;;;0.40;0.40;;;;;;;4.94;100.00;98190.25;5064408;28;20217;-80
2023/12/20 03:45:50;;;;;;;0.53;0.53;;;;;;;4.93;100.00;98190.31;5064070;28;20213;-80
2023/12/20 03:48:18;;;;;;;0.50;0.50;;;;;;;4.91;100.00;98197.41;5064291;28;20223;-80
2023/12/20 03:50:44;;;;;;;0.57;0.53;;;;;;;4.88;100.00;98195.78;5063878;28;20709;-80
2023/12/20 03:53:11;;;;;;;1.07;0.60;;;;;;;4.90;100.00;98193.09;5065026;28;20225;-80
2023/12/20 03:55:37;;;;;;;0.30;0.30;;;;;;;4.89;100.00;98200.09;5064884;28;20210;-80
2023/12/20 03:58:04;;;;;;;0.63;0.60;;;;;;;4.85;100.00;98193.31;5063951;28;20216;-80
2023/12/20 04:00:31;;;;;;;0.43;0.43;;;;;;;4.84;100.00;98191.56;5064741;28;20243;-82
2023/12/20 04:02:57;;;;;;;0.53;0.53;;;;;;;4.84;100.00;98186.34;5070376;28;20319;-81
2023/12/20 04:05:25;;;;;;;0.50;0.50;;;;;;;4.85;100.00;98188.06;5083905;28;20219;-80
2023/12/20 04:07:51;;;;;;;0.50;0.50;;;;;;;4.85;100.00;98195.94;5083574;28;20591;-80
2023/12/20 04:10:18;;;;;;;0.50;0.50;;;;;;;4.82;100.00;98187.34;5083515;28;20233;-80
2023/12/20 04:12:44;;;;;;;0.40;0.40;;;;;;;4.81;100.00;98196.09;5084175;28;20233;-80
2023/12/20 04:15:11;;;;;;;0.57;0.57;;;;;;;4.83;100.00;98196.91;5082556;28;20218;-80
2023/12/20 04:17:38;;;;;;;0.90;0.60;;;;;;;4.85;100.00;98195.06;5085021;28;20240;-80
2023/12/20 04:20:06;;;;;;;0.73;0.53;;;;;;;4.85;100.00;98193.31;5083940;28;20319;-80
2023/12/20 04:22:33;;;;;;;0.50;0.50;;;;;;;4.81;100.00;98196.97;5083682;28;20229;-80
2023/12/20 04:25:00;;;;;;;0.50;0.50;;;;;;;4.78;100.00;98207.59;5083739;28;20227;-80
2023/12/20 04:27:26;;;;;;;0.50;0.50;;;;;;;4.81;100.00;98207.44;5083392;28;20633;-80
2023/12/20 04:29:53;;;;;;;0.77;0.60;;;;;;;4.80;100.00;98211.00;5084223;28;20204;-80
2023/12/20 04:32:19;;;;;;;0.50;0.50;;;;;;;4.80;100.00;98218.84;5084219;28;20238;-80
2023/12/20 04:34:46;;;;;;;2.77;0.70;;;;;;;4.79;100.00;98208.44;5083064;28;20222;-80
2023/12/20 04:37:13;;;;;;;0.57;0.50;;;;;;;4.76;100.00;98209.41;5083641;28;20276;-80
2023/12/20 04:39:41;;;;;;;1.67;0.50;;;;;;;4.75;100.00;98217.31;5080736;28;20207;-80
2023/12/20 04:42:08;;;;;;;0.60;0.60;;;;;;;4.78;100.00;98217.22;5081591;28;20260;-80
2023/12/20 04:44:34;;;;;;;0.50;0.50;;;;;;;4.77;100.00;98226.81;5079628;28;20295;-77
2023/12/20 04:47:01;;;;;;;0.60;0.50;;;;;;;4.80;100.00;98231.94;5078302;28;20281;-80
2023/12/20 04:49:27;;;;;;;1.93;0.70;;;;;;;4.76;100.00;98246.06;5082997;28;20236;-79
2023/12/20 04:51:54;;;;;;;0.60;0.60;;;;;;;4.81;100.00;98236.25;5084009;28;20229;-80
2023/12/20 04:54:20;;;;;;;0.63;0.57;;;;;;;4.82;100.00;98235.31;5085433;28;20212;-80
2023/12/20 04:56:48;;;;;;;0.80;0.50;;;;;;;4.83;100.00;98230.94;5084857;28;20220;-80
2023/12/20 04:59:14;;;;;;;1.03;0.60;;;;;;;4.80;100.00;98242.41;5085170;28;20682;-80
2023/12/20 05:01:41;;;;;;;0.53;0.53;;;;;;;4.83;100.00;98242.25;5084643;28;20234;-80
2023/12/20 05:04:07;;;;;;;2.17;0.80;;;;;;;4.82;100.00;98230.09;5083942;28;20210;-80
2023/12/20 05:06:34;;;;;;;0.43;0.43;;;;;;;4.82;100.00;98235.31;5084908;28;20204;-80
2023/12/20 05:09:00;;;;;;;1.53;0.70;;;;;;;4.82;100.00;98230.09;5082702;28;20212;-80
2023/12/20 05:11:27;;;;;;;0.83;0.60;;;;;;;4.84;100.00;98228.25;5083467;28;20230;-80
2023/12/20 05:13:55;;;;;;;0.60;0.60;;;;;;;4.85;100.00;98236.97;5084197;28;20219;-80
2023/12/20 05:16:21;;;;;;;0.50;0.50;;;;;;;4.87;100.00;98233.34;5084155;28;20220;-80
2023/12/20 05:18:49;;;;;;;0.60;0.60;;;;;;;4.88;100.00;98245.53;5084689;28;20215;-80
2023/12/20 05:21:16;;;;;;;2.00;0.70;;;;;;;4.90;100.00;98243.66;5085223;28;20234;-80
2023/12/20 05:23:42;;;;;;;0.80;0.70;;;;;;;4.90;100.00;98246.28;5084856;28;20554;-80
2023/12/20 05:26:09;;;;;;;0.50;0.50;;;;;;;4.91;100.00;98245.41;5084726;28;20213;-80
2023/12/20 05:28:35;;;;;;;1.10;0.73;;;;;;;4.93;100.00;98251.41;5085080;28;20255;-80
2023/12/20 05:31:03;;;;;;;0.83;0.83;;;;;;;4.94;100.00;98250.50;5085613;28;20200;-80
2023/12/20 05:33:30;;;;;;;0.90;0.83;;;;;;;4.95;100.00;98257.41;5084806;28;20213;-80
2023/12/20 05:35:56;;;;;;;0.90;0.80;;;;;;;4.95;100.00;98262.66;5084429;28;20214;-80
2023/12/20 05:38:23;;;;;;;0.90;0.90;;;;;;;4.99;100.00;98263.38;5085586;28;20297;-80
2023/12/20 05:40:49;;;;;;;1.20;1.10;;;;;;;4.98;100.00;98273.00;5086197;28;20229;-81
2023/12/20 05:43:16;;;;;;;1.00;0.80;;;;;;;5.00;100.00;98263.31;5087735;28;20205;-80
2023/12/20 05:45:43;;;;;;;1.60;1.13;;;;;;;5.03;100.00;98271.03;5087430;28;20213;-79
2023/12/20 05:48:10;;;;;;;1.43;1.30;;;;;;;5.02;100.00;98274.56;5085029;28;20212;-80
2023/12/20 05:50:37;;;;;;;1.40;1.30;;;;;;;5.04;100.00;98283.22;5083764;28;20619;-80
2023/12/20 05:53:04;;;;;;;1.70;1.60;;;;;;;5.06;100.00;98285.78;5085240;28;20229;-80
2023/12/20 05:55:31;;;;;;;1.80;1.57;;;;;;;5.08;100.00;98287.38;5083764;28;20205;-80
2023/12/20 05:57:57;;;;;;;1.50;1.40;;;;;;;5.07;100.00;98288.28;5084118;28;20238;-80
2023/12/20 06:00:25;;;;;;;3.50;1.70;;;;;;;5.05;100.00;98284.91;5083784;28;20205;-80
2023/12/20 06:02:51;;;;;;;1.80;1.47;;;;;;;5.05;100.00;98295.38;5083767;28;20714;-80
2023/12/20 06:05:19;;;;;;;1.57;1.20;;;;;;;5.08;100.00;98295.22;5083159;28;20645;-80
2023/12/20 06:07:48;;;;;;;3.40;1.80;;;;;;;5.09;100.00;98307.44;5083858;28;20213;-79
2023/12/20 06:10:14;;;;;;;2.40;1.37;;;;;;;5.12;100.00;98307.28;5084935;28;20230;-81
2023/12/20 06:12:41;;;;;;;1.87;1.70;;;;;;;5.12;100.00;98307.28;5084636;28;20618;-79
2023/12/20 06:15:08;;;;;;;2.07;1.70;;;;;;;5.13;100.00;98303.75;5083797;28;20301;-81
2023/12/20 06:17:35;;;;;;;1.53;1.43;;;;;;;5.12;100.00;98307.28;5084109;28;20211;-82
2023/12/20 06:20:02;;;;;;;1.70;1.47;;;;;;;5.13;100.00;98314.22;5084393;28;20213;-80
2023/12/20 06:22:30;;;;;;;2.37;1.60;;;;;;;5.15;100.00;98304.53;5084866;28;20230;-79
2023/12/20 06:24:56;;;;;;;1.80;1.70;;;;;;;5.16;100.00;98303.63;5083545;28;20215;-79
2023/12/20 06:27:23;;;;;;;2.23;1.80;;;;;;;5.18;100.00;98295.66;5084417;28;20217;-79
2023/12/20 06:29:49;;;;;;;2.73;1.47;;;;;;;5.18;100.00;98296.53;5083638;28;20211;-79
2023/12/20 06:32:16;;;;;;;1.87;1.40;;;;;;;5.19;100.00;98297.41;5084674;28;20235;-80
2023/12/20 06:34:42;;;;;;;1.97;1.60;;;;;;;5.18;100.00;98304.38;5084323;28;20224;-80
2023/12/20 06:37:09;;;;;;;1.80;1.47;;;;;;;5.18;100.00;98312.25;5084528;28;20684;-80
2023/12/20 06:39:36;;;;;;;2.77;1.80;;;;;;;5.18;100.00;98322.72;5085155;28;20567;-79
2023/12/20 06:42:04;;;;;;;2.43;1.97;;;;;;;5.18;100.00;98320.09;5085104;28;20233;-79
2023/12/20 06:44:31;;;;;;;2.47;2.10;;;;;;;5.19;100.00;98319.19;5085539;28;20221;-79
2023/12/20 06:46:58;;;;;;;2.90;2.10;;;;;;;5.20;100.00;98315.63;5084347;28;20229;-79
2023/12/20 06:49:24;;;;;;;3.30;1.93;;;;;;;5.21;100.00;98316.50;5082709;28;20588;-79
2023/12/20 06:51:51;;;;;;;3.87;2.20;;;;;;;5.22;100.00;98323.44;5085446;28;20244;-79
2023/12/20 06:54:17;;;;;;;3.23;2.30;;;;;;;5.22;100.00;98324.31;5086167;28;20210;-80
2023/12/20 06:56:45;;;;;;;2.80;2.40;;;;;;;5.25;100.00;98333.81;5088321;28;20209;-79
2023/12/20 06:59:11;;;;;;;4.13;2.90;;;;;;;5.23;100.00;98336.47;5088008;28;20210;-79
2023/12/20 07:01:38;;;;;;;3.43;2.97;;;;;;;5.24;100.00;98338.19;5087026;28;20243;-82
2023/12/20 07:04:05;;;;;;;6.87;3.30;;;;;;;5.27;100.00;98335.44;5086203;28;20247;-81
2023/12/20 07:06:31;;;;;;;3.70;3.23;;;;;;;5.29;100.00;98349.31;5083831;28;20210;-79
2023/12/20 07:08:58;;;;;;;5.97;3.47;;;;;;;5.28;100.00;98352.00;5084412;28;20568;-79
2023/12/20 07:11:26;;;;;;;5.53;4.10;;;;;;;5.33;100.00;98344.78;5084836;28;20240;-79
2023/12/20 07:13:54;;;;;;;5.73;4.37;;;;;;;5.31;100.00;98360.56;5083945;28;20209;-79
2023/12/20 07:16:20;;;;;;;6.67;4.73;;;;;;;5.33;100.00;98366.59;5084289;28;20234;-79
2023/12/20 07:18:47;;;;;;;7.63;4.87;;;;;;;5.32;100.00;98369.28;5084375;28;20206;-80
2023/12/20 07:21:13;;;;;;;7.10;4.80;;;;;;;5.35;100.00;98362.13;5085141;28;20230;-81
2023/12/20 07:23:40;;;;;;;7.93;5.27;;;;;;;5.34;100.00;98377.91;5082485;28;20216;-79
2023/12/20 07:26:07;;;;;;;5.97;4.53;;;;;;;5.34;100.00;98376.16;5084393;28;20239;-78
2023/12/20 07:28:33;;;;;;;7.17;5.13;;;;;;;5.31;100.00;98381.53;5086638;28;20293;-79
2023/12/20 07:31:01;;;;;;;6.63;4.87;;;;;;;5.31;100.00;98381.53;5083991;28;20206;-78
2023/12/20 07:33:27;;;;;;;6.50;4.40;;;;;;;5.28;100.00;98392.16;5086333;28;20707;-78
2023/12/20 07:35:54;;;;;;;5.93;4.30;;;;;;;5.24;100.00;98390.59;5084657;28;20206;-79
2023/12/20 07:38:23;;;;;;;5.87;4.30;;;;;;;5.23;100.00;98394.13;5084164;28;20227;-79
2023/12/20 07:40:49;;;;;;;5.47;4.63;;;;;;;5.20;100.00;98402.09;5085023;28;20216;-79
2023/12/20 07:43:16;;;;;;;5.73;3.97;;;;;;;5.16;100.00;98403.19;5083834;28;20217;-78
2023/12/20 07:45:43;;;;;;;6.33;3.63;;;;;;;5.08;100.00;98394.78;5084070;28;20224;-78
2023/12/20 07:48:10;;;;;;;4.00;3.10;;;;;;;5.02;100.00;98400.28;5085421;28;20212;-78
2023/12/20 07:50:37;;;;;;;5.67;4.20;;;;;;;4.96;100.00;98400.53;5085666;28;20219;-79
2023/12/20 07:53:04;;;;;;;4.50;3.50;;;;;;;4.95;100.00;98404.06;5086717;28;20562;-78
2023/12/20 07:55:31;;;;;;;5.43;4.07;;;;;;;4.85;100.00;98408.03;5084874;28;20208;-79
2023/12/20 07:57:58;;;;;;;7.97;3.93;;;;;;;4.67;100.00;98413.16;5091987;28;20237;-78
2023/12/20 08:00:24;;;;;;;5.93;4.30;;;;;;;4.60;100.00;98412.59;5091048;28;20213;-78
2023/12/20 08:02:51;;;;;;;5.10;4.13;;;;;;;4.57;100.00;98415.31;5089224;28;20238;-78
2023/12/20 08:05:19;;;;;;;4.23;3.70;;;;;;;4.48;100.00;98406.97;5089948;28;20212;-80
2023/12/20 08:07:45;;;;;;;6.37;4.27;;;;;;;4.43;100.00;98414.16;5085917;28;20217;-79
2023/12/20 08:10:12;;;;;;;4.73;3.80;;;;;;;4.35;100.00;98416.25;5082960;28;20205;-81
2023/12/20 08:12:39;;;;;;;4.50;3.53;;;;;;;4.28;100.00;98430.50;5082368;28;20226;-79
2023/12/20 08:15:07;;;;;;;6.27;4.10;;;;;;;4.28;100.00;98427.88;5081041;28;20303;-79
2023/12/20 08:17:34;;;;;;;5.23;4.20;;;;;;;4.21;100.00;98429.88;5078826;28;20666;-79
2023/12/20 08:20:00;;;;;;;5.93;3.87;;;;;;;4.14;100.00;98438.88;5080688;28;20219;-79
2023/12/20 08:22:28;;;;;;;6.80;4.27;;;;;;;4.09;100.00;98432.97;5082183;28;20228;-81
2023/12/20 08:24:55;;;;;;;7.57;4.37;;;;;;;4.13;100.00;98445.00;5081735;28;20634;-79
2023/12/20 08:27:21;;;;;;;7.50;4.90;;;;;;;4.10;100.00;98439.88;5079804;28;20218;-79
2023/12/20 08:29:49;;;;;;;7.40;4.77;;;;;;;4.17;100.00;98433.50;5080854;28;20221;-78
2023/12/20 08:32:16;;;;;;;5.90;4.27;;;;;;;4.10;100.00;98436.44;5075055;28;20301;-81
2023/12/20 08:34:42;;;;;;;6.25;4.35;;;;;;;4.21;100.00;98444.72;5083376;28;20424;-79
2023/12/20 08:37:08;;;;;;;6.53;4.57;;;;;;;4.20;100.00;98459.56;5079653;28;20212;-81
2023/12/20 08:39:37;;;;;;;5.83;4.20;;;;;;;4.19;100.00;98465.69;5085487;28;20213;-79
2023/12/20 08:42:04;;;;;;;7.87;4.40;;;;;;;4.16;100.00;98457.97;5083684;28;20232;-81
2023/12/20 08:44:30;;;;;;;6.73;4.37;;;;;;;4.13;100.00;98463.31;5084336;28;20208;-79
2023/12/20 08:46:57;;;;;;;7.07;4.03;;;;;;;4.11;100.00;98465.16;5083747;28;20213;-81
2023/12/20 08:49:23;;;;;;;6.33;4.07;;;;;;;4.15;100.00;98465.88;5085647;28;20704;-81
2023/12/20 08:51:50;;;;;;;6.37;4.50;;;;;;;4.16;100.00;98471.03;5084048;28;20227;-80
2023/12/20 08:54:17;;;;;;;6.27;3.97;;;;;;;4.17;100.00;98475.34;5085258;28;20215;-81
2023/12/20 08:56:45;;;;;;;7.03;3.83;;;;;;;4.16;100.00;98473.66;5084696;28;20219;-81
2023/12/20 08:59:12;;;;;;;5.90;4.27;;;;;;;4.22;100.00;98462.97;5084301;28;20204;-81
2023/12/20 09:01:38;;;;;;;6.20;3.93;;;;;;;4.26;100.00;98464.56;5085335;28;20637;-81
2023/12/20 09:04:06;;;;;;;4.60;3.40;;;;;;;4.23;100.00;98459.41;5085484;28;20218;-81
2023/12/20 09:06:32;;;;;;;5.70;4.40;;;;;;;4.24;100.00;98465.53;5083238;28;20244;-81
2023/12/20 09:08:59;;;;;;;5.10;4.40;;;;;;;4.31;100.00;98452.16;5083499;28;20209;-80
2023/12/20 09:11:25;;;;;;;6.20;4.00;;;;;;;4.30;100.00;98466.16;5085231;28;20641;-79
2023/12/20 09:13:53;;;;;;;7.13;4.40;;;;;;;4.35;100.00;98452.88;5084598;28;20217;-79
2023/12/20 09:16:20;;;;;;;5.87;4.17;;;;;;;4.40;100.00;98451.78;5086274;28;20212;-81
2023/12/20 09:18:46;;;;;;;5.07;3.43;;;;;;;4.41;100.00;98453.47;5085722;28;20296;-79
2023/12/20 09:21:13;;;;;;;4.67;3.43;;;;;;;4.44;100.00;98453.34;5085788;28;20225;-80
2023/12/20 09:23:39;;;;;;;4.50;3.23;;;;;;;4.44;100.00;98457.72;5085664;28;20261;-79
2023/12/20 09:26:06;;;;;;;5.50;2.93;;;;;;;4.43;100.00;98462.13;5085073;28;20204;-79
2023/12/20 09:28:36;;;;;;;5.80;3.00;;;;;;;4.42;100.00;98460.44;5084823;28;20211;-79
2023/12/20 09:31:05;;;;;;;3.43;2.63;;;;;;;4.40;100.00;98462.22;5077111;28;20205;-79
2023/12/20 09:33:31;;;;;;;4.37;3.20;;;;;;;4.42;100.00;98460.44;5063633;28;20215;-79
2023/12/20 09:35:58;;;;;;;3.63;3.10;;;;;;;4.46;100.00;98467.22;5074357;28;20223;-79
2023/12/20 09:38:24;;;;;;;4.10;3.00;;;;;;;4.50;100.00;98467.94;5083087;28;20216;-79
2023/12/20 09:40:51;;;;;;;4.47;2.40;;;;;;;4.50;100.00;98474.06;5065619;28;20213;-79
2023/12/20 09:43:20;;;;;;;4.80;2.43;;;;;;;4.52;100.00;98482.69;5061137;28;20229;-79
2023/12/20 09:45:48;;;;;;;5.00;2.50;;;;;;;4.56;100.00;98489.50;5062348;28;20210;-79
2023/12/20 09:48:19;;;;;;;3.47;2.40;;;;;;;4.61;100.00;98476.25;5062315;28;20206;-81
2023/12/20 09:50:46;;;;;;;2.60;2.10;;;;;;;4.60;100.00;98480.63;5058502;28;20275;-79
2023/12/20 09:53:16;;;;;;;3.70;2.10;;;;;;;4.66;100.00;98480.41;5059189;28;20201;-80
2023/12/20 09:55:43;;;;;;;4.63;1.87;;;;;;;4.70;100.00;98475.88;5060687;28;20657;-80
2023/12/20 09:58:09;;;;;;;3.63;1.53;;;;;;;4.78;100.00;98469.44;5061588;28;20213;-80
2023/12/20 10:00:36;;;;;;;3.57;1.50;;;;;;;4.75;100.00;98466.06;5058373;28;20210;-77
2023/12/20 10:03:06;;;;;;;2.53;1.40;;;;;;;4.72;100.00;98467.06;5058349;28;20236;-80
2023/12/20 10:05:35;;;;;;;3.63;1.73;;;;;;;4.81;100.00;98473.66;5061656;28;20286;-79
2023/12/20 10:08:02;;;;;;;2.83;1.53;;;;;;;4.87;100.00;98482.13;5063775;28;20212;-79
2023/12/20 10:10:29;;;;;;;4.83;1.30;;;;;;;4.88;100.00;98470.72;5057988;28;20677;-80
2023/12/20 10:13:03;;;;;;;4.83;1.50;;;;;;;4.88;100.00;98470.72;5056605;28;20229;-78
2023/12/20 10:15:30;;;;;;;2.23;1.47;;;;;;;4.88;100.00;98470.72;5055321;28;20562;-78
2023/12/20 10:17:57;;;;;;;1.70;1.40;;;;;;;4.88;100.00;98457.63;5056293;28;20218;-78
2023/12/20 10:20:23;;;;;;;3.33;1.53;;;;;;;4.87;100.00;98458.56;5055353;28;20211;-79
2023/12/20 10:22:53;;;;;;;5.30;1.63;;;;;;;4.91;100.00;98460.16;5057951;28;20233;-78
2023/12/20 10:25:20;;;;;;;3.67;1.47;;;;;;;4.91;100.00;98460.16;5056568;28;20205;-78
2023/12/20 10:27:46;;;;;;;2.47;1.53;;;;;;;5.00;100.00;98454.50;5059470;28;20205;-78
2023/12/20 10:30:14;;;;;;;4.40;1.57;;;;;;;4.99;100.00;98452.81;5059159;28;20698;-78
2023/12/20 10:32:40;;;;;;;3.63;1.50;;;;;;;5.02;100.00;98447.44;5064335;28;20312;-78
2023/12/20 10:35:07;;;;;;;1.63;1.10;;;;;;;5.06;100.00;98448.19;5060079;28;20221;-78
2023/12/20 10:37:36;;;;;;;2.60;1.47;;;;;;;5.05;100.00;98430.72;5056130;28;20266;-79
2023/12/20 10:40:06;;;;;;;3.30;1.53;;;;;;;5.07;100.00;98435.00;5059924;28;20205;-77
2023/12/20 10:42:33;;;;;;;5.73;1.80;;;;;;;5.10;100.00;98445.34;5058007;28;20266;-79
2023/12/20 10:45:00;;;;;;;1.63;1.40;;;;;;;5.15;100.00;98438.16;5060774;28;20225;-77
2023/12/20 10:47:27;;;;;;;2.40;1.33;;;;;;;5.30;100.00;98445.34;5063607;28;20220;-79
2023/12/20 10:49:54;;;;;;;2.50;1.30;;;;;;;5.48;100.00;98446.28;5069417;28;20259;-79
2023/12/20 10:52:23;;;;;;;4.73;1.80;;;;;;;5.58;100.00;98442.38;5067440;28;20229;-79
2023/12/20 10:54:50;;;;;;;5.07;1.70;;;;;;;5.63;100.00;98441.22;5067424;28;20220;-79
2023/12/20 10:57:19;;;;;;;1.67;1.30;;;;;;;5.64;100.00;98424.59;5068908;28;20216;-79
2023/12/20 10:59:47;;;;;;;4.43;1.30;;;;;;;5.61;100.00;98416.84;5068838;28;20209;-79
2023/12/20 11:02:14;;;;;;;2.70;1.13;;;;;;;5.67;100.00;98416.59;5068254;28;20297;-79
2023/12/20 11:04:50;;;;;;;1.90;1.07;;;;;;;5.73;100.00;98413.69;5069600;28;20225;-79
2023/12/20 11:07:24;;;;;;;3.00;1.53;;;;;;;5.87;100.00;98398.19;5070112;28;20210;-79
2023/12/20 11:10:01;;;;;;;3.30;1.30;;;;;;;6.11;100.00;98407.53;5069105;28;20210;-80
2023/12/20 11:12:39;;;;;;;3.40;1.30;;;;;;;6.24;100.00;98400.78;5070186;28;20225;-80
2023/12/20 11:15:08;;;;;;;3.87;1.27;;;;;;;6.27;100.00;98377.03;5069723;28;20199;-80
2023/12/20 11:17:35;;;;;;;1.33;1.10;;;;;;;6.22;100.00;98373.78;5070233;28;20628;-79
2023/12/20 11:20:11;;;;;;;3.27;1.30;;;;;;;6.05;100.00;98370.25;5068227;28;20205;-79
2023/12/20 11:22:41;;;;;;;3.70;1.00;;;;;;;5.99;100.00;98391.53;5068009;28;20233;-79
2023/12/20 11:25:10;;;;;;;2.27;1.40;;;;;;;5.98;100.00;98395.91;5067517;28;20235;-80
2023/12/20 11:27:41;;;;;;;3.20;1.43;;;;;;;6.00;100.00;98394.09;5067355;28;20219;-79
2023/12/20 11:30:09;;;;;;;4.33;1.70;;;;;;;6.15;100.00;98401.22;5067326;28;20214;-79
2023/12/20 11:32:36;;;;;;;4.13;1.13;;;;;;;6.24;100.00;98387.66;5067738;28;20512;-80